createdAt,value
2022-10-31T00:00:33.158Z,11.42
2022-10-31T00:05:36.147Z,11.00
2022-10-31T00:10:41.526Z,10.93
2022-10-31T00:15:44.482Z,11.61
2022-10-31T00:20:47.626Z,11.28
2022-10-31T00:25:51.955Z,11.56
2022-10-31T00:30:54.857Z,11.09
2022-10-31T00:35:58.313Z,10.73
2022-10-31T00:41:02.650Z,10.25
2022-10-31T00:46:06.020Z,10.11
2022-10-31T00:51:09.354Z,9.83
2022-10-31T00:56:13.688Z,10.06
2022-10-31T01:01:17.037Z,10.06
2022-10-31T01:06:20.142Z,10.11
2022-10-31T01:11:25.715Z,10.02
2022-10-31T01:16:30.472Z,9.92
2022-10-31T01:21:34.556Z,9.76
2022-10-31T01:26:38.856Z,9.56
2022-10-31T01:31:42.295Z,9.60
2022-10-31T01:36:48.335Z,9.63
2022-10-31T01:41:54.880Z,9.62
2022-10-31T01:47:01.975Z,9.40
2022-10-31T01:52:09.546Z,9.51
2022-10-31T01:57:16.847Z,9.46
2022-10-31T02:02:21.049Z,9.46
2022-10-31T02:07:29.351Z,9.42
2022-10-31T02:12:38.132Z,9.82
2022-10-31T02:17:41.061Z,9.64
2022-10-31T02:23:05.385Z,9.61
2022-10-31T02:28:27.292Z,9.31
2022-10-31T02:33:41.241Z,9.36
2022-10-31T02:38:54.357Z,9.40
2022-10-31T02:44:17.900Z,9.41
2022-10-31T02:49:26.774Z,9.43
2022-10-31T02:54:30.469Z,9.21
2022-10-31T02:59:37.242Z,9.12
2022-10-31T03:05:10.605Z,9.27
2022-10-31T03:10:19.433Z,9.22
2022-10-31T03:15:28.426Z,9.26
2022-10-31T03:20:38.545Z,9.34
2022-10-31T03:25:43.060Z,9.36
2022-10-31T03:30:48.982Z,9.21
2022-10-31T03:35:56.549Z,9.20
2022-10-31T03:41:05.359Z,9.23
2022-10-31T03:46:08.727Z,9.20
2022-10-31T03:51:19.578Z,9.18
2022-10-31T03:56:28.376Z,9.17
2022-10-31T04:01:34.819Z,9.08
2022-10-31T04:06:43.850Z,8.86
2022-10-31T04:11:50.081Z,8.88
2022-10-31T04:17:20.820Z,8.91
2022-10-31T04:22:25.181Z,8.64
2022-10-31T04:27:29.006Z,8.66
2022-10-31T04:32:31.946Z,8.59
2022-10-31T04:37:36.241Z,8.58
2022-10-31T04:42:40.013Z,8.58
2022-10-31T04:47:43.704Z,8.48
2022-10-31T04:52:48.765Z,8.44
2022-10-31T04:57:55.037Z,8.46
2022-10-31T05:03:02.302Z,8.43
2022-10-31T05:08:07.425Z,8.51
2022-10-31T05:13:11.257Z,8.52
2022-10-31T05:18:32.766Z,8.43
2022-10-31T05:23:55.445Z,8.36
2022-10-31T05:29:00.540Z,8.40
2022-10-31T05:34:04.887Z,8.39
2022-10-31T05:39:27.895Z,8.31
2022-10-31T05:44:40.218Z,8.22
2022-10-31T05:49:46.117Z,8.25
2022-10-31T05:55:02.404Z,8.14
2022-10-31T06:00:08.500Z,8.11
2022-10-31T06:05:31.909Z,8.16
2022-10-31T06:10:36.298Z,8.23
2022-10-31T06:15:39.226Z,8.23
2022-10-31T06:20:44.538Z,8.12
2022-10-31T06:25:52.128Z,8.29
2022-10-31T06:30:55.087Z,8.32
2022-10-31T06:35:58.786Z,8.52
2022-10-31T06:41:06.054Z,8.45
2022-10-31T06:46:18.615Z,8.53
2022-10-31T06:51:49.331Z,8.62
2022-10-31T06:56:54.556Z,8.77
2022-10-31T07:01:59.738Z,8.79
2022-10-31T07:07:03.239Z,8.96
2022-10-31T07:12:08.298Z,9.45
2022-10-31T07:17:14.733Z,9.68
2022-10-31T07:22:20.192Z,10.21
2022-10-31T07:27:24.625Z,10.35
2022-10-31T07:32:28.355Z,10.87
2022-10-31T07:37:36.827Z,11.00
2022-10-31T07:42:43.030Z,11.44
2022-10-31T07:48:05.566Z,11.78
2022-10-31T07:53:27.012Z,11.90
2022-10-31T07:58:36.082Z,12.38
2022-10-31T08:03:39.210Z,12.71
2022-10-31T08:09:02.386Z,13.04
2022-10-31T08:14:07.280Z,13.05
2022-10-31T08:19:11.110Z,13.17
2022-10-31T08:24:15.669Z,13.48
2022-10-31T08:29:20.998Z,13.83
2022-10-31T08:34:23.967Z,14.19
2022-10-31T08:39:49.707Z,14.61
2022-10-31T08:44:53.961Z,14.89
2022-10-31T08:49:58.717Z,15.12
2022-10-31T08:55:01.782Z,15.48
2022-10-31T09:00:27.006Z,15.67
2022-10-31T09:05:37.233Z,15.55
2022-10-31T09:10:40.718Z,15.70
2022-10-31T09:15:49.401Z,16.04
2022-10-31T09:21:02.115Z,16.17
2022-10-31T09:26:07.560Z,16.35
2022-10-31T09:31:15.454Z,16.05
2022-10-31T09:36:32.743Z,16.26
2022-10-31T09:41:57.041Z,16.30
2022-10-31T09:47:10.607Z,16.82
2022-10-31T09:52:23.035Z,16.99
2022-10-31T09:57:30.504Z,16.74
2022-10-31T10:02:41.895Z,16.78
2022-10-31T10:07:52.059Z,16.71
2022-10-31T10:13:41.936Z,16.61
2022-10-31T10:19:03.205Z,16.57
2022-10-31T10:24:18.264Z,17.11
2022-10-31T10:29:35.128Z,17.40
2022-10-31T10:34:45.597Z,17.59
2022-10-31T10:39:52.363Z,17.59
2022-10-31T10:45:13.022Z,17.64
2022-10-31T10:50:21.110Z,16.75
2022-10-31T10:55:34.900Z,17.00
2022-10-31T11:00:41.208Z,16.55
2022-10-31T11:05:50.333Z,16.92
2022-10-31T11:11:00.949Z,16.55
2022-10-31T11:16:06.667Z,16.63
2022-10-31T11:21:26.058Z,16.72
2022-10-31T11:26:28.969Z,16.77
2022-10-31T11:31:33.874Z,17.32
2022-10-31T11:36:41.253Z,17.30
2022-10-31T11:41:44.469Z,17.33
2022-10-31T11:46:50.688Z,16.84
2022-10-31T11:51:58.201Z,17.20
2022-10-31T11:57:01.453Z,17.38
2022-10-31T12:02:04.454Z,17.33
2022-10-31T12:07:08.883Z,17.42
2022-10-31T12:12:50.715Z,17.66
2022-10-31T12:18:05.508Z,17.43
2022-10-31T12:23:27.655Z,17.40
2022-10-31T12:28:46.388Z,17.43
2022-10-31T12:34:01.068Z,17.26
2022-10-31T12:39:25.963Z,17.31
2022-10-31T12:45:05.537Z,17.37
2022-10-31T12:50:21.356Z,17.27
2022-10-31T12:55:46.934Z,17.35
2022-10-31T13:00:57.927Z,17.35
2022-10-31T13:06:07.380Z,17.24
2022-10-31T13:11:15.797Z,17.23
2022-10-31T13:16:23.588Z,17.54
2022-10-31T13:21:29.694Z,17.35
2022-10-31T13:26:51.019Z,17.20
2022-10-31T13:31:54.113Z,17.42
2022-10-31T13:37:08.217Z,17.33
2022-10-31T13:42:21.149Z,17.22
2022-10-31T13:47:28.116Z,17.24
2022-10-31T13:52:31.549Z,17.15
2022-10-31T13:57:41.044Z,17.29
2022-10-31T14:02:49.807Z,17.03
2022-10-31T14:07:54.603Z,16.94
2022-10-31T14:13:07.852Z,16.65
2022-10-31T14:18:24.632Z,16.07
2022-10-31T14:23:36.375Z,16.05
2022-10-31T14:28:40.706Z,15.89
2022-10-31T14:33:44.674Z,15.97
2022-10-31T14:38:58.946Z,15.88
2022-10-31T14:44:31.860Z,15.71
2022-10-31T14:49:51.511Z,15.70
2022-10-31T14:54:57.686Z,15.50
2022-10-31T15:00:09.328Z,15.31
2022-10-31T15:05:14.519Z,15.11
2022-10-31T15:10:23.739Z,14.94
2022-10-31T15:15:28.623Z,14.90
2022-10-31T15:20:35.976Z,14.58
2022-10-31T15:25:38.870Z,14.43
2022-10-31T15:30:52.334Z,14.25
2022-10-31T15:36:00.742Z,14.22
2022-10-31T15:41:05.770Z,14.12
2022-10-31T15:46:11.462Z,13.98
2022-10-31T15:51:14.485Z,13.99
2022-10-31T15:56:23.997Z,13.78
2022-10-31T16:01:31.408Z,13.58
2022-10-31T16:06:35.995Z,13.39
2022-10-31T16:11:41.076Z,13.39
2022-10-31T16:16:49.230Z,13.46
2022-10-31T16:21:57.046Z,13.48
2022-10-31T16:27:04.766Z,13.42
2022-10-31T16:32:31.049Z,13.34
2022-10-31T16:37:33.975Z,13.28
2022-10-31T16:42:36.874Z,13.06
2022-10-31T16:47:41.125Z,13.05
2022-10-31T16:53:01.031Z,12.98
2022-10-31T16:58:16.196Z,12.93
2022-10-31T17:03:20.891Z,12.83
2022-10-31T17:08:24.756Z,12.69
2022-10-31T17:13:30.858Z,12.67
2022-10-31T17:18:35.375Z,12.54
2022-10-31T17:23:38.686Z,12.37
2022-10-31T17:28:42.354Z,12.42
2022-10-31T17:33:46.589Z,12.29
2022-10-31T17:38:49.468Z,12.10
2022-10-31T17:43:56.134Z,12.23
2022-10-31T17:49:02.066Z,12.17
2022-10-31T17:54:05.991Z,12.12
2022-10-31T17:59:08.839Z,12.07
2022-10-31T18:04:13.150Z,11.90
2022-10-31T18:09:16.146Z,12.00
2022-10-31T18:14:19.026Z,11.96
2022-10-31T18:19:23.458Z,11.93
2022-10-31T18:24:27.955Z,11.88
2022-10-31T18:29:30.964Z,11.86
2022-10-31T18:34:35.250Z,11.81
2022-10-31T18:39:38.164Z,11.86
2022-10-31T18:44:40.999Z,11.75
2022-10-31T18:49:45.271Z,11.67
2022-10-31T18:54:48.246Z,11.52
2022-10-31T18:59:51.133Z,11.40
2022-10-31T19:04:55.479Z,11.38
2022-10-31T19:09:58.379Z,11.29
2022-10-31T19:15:01.270Z,11.11
2022-10-31T19:20:06.521Z,10.99
2022-10-31T19:25:11.014Z,10.80
2022-10-31T19:30:14.864Z,10.87
2022-10-31T19:35:19.264Z,10.81
2022-10-31T19:40:22.217Z,10.69
2022-10-31T19:45:25.062Z,10.65
2022-10-31T19:50:29.771Z,10.47
2022-10-31T19:55:32.647Z,10.47
2022-10-31T20:00:36.517Z,10.50
2022-10-31T20:05:43.110Z,10.52
2022-10-31T20:10:54.625Z,10.44
2022-10-31T20:16:00.576Z,10.35
2022-10-31T20:21:06.804Z,10.29
2022-10-31T20:26:11.659Z,10.31
2022-10-31T20:31:17.764Z,10.24
2022-10-31T20:36:23.038Z,10.26
2022-10-31T20:41:26.107Z,10.24
2022-10-31T20:46:29.252Z,10.35
2022-10-31T20:51:33.536Z,10.32
2022-10-31T20:56:36.452Z,10.24
2022-10-31T21:01:39.767Z,10.27
2022-10-31T21:06:49.005Z,10.19
2022-10-31T21:11:52.351Z,9.31
2022-10-31T21:16:55.297Z,9.56
2022-10-31T21:21:59.589Z,9.75
2022-10-31T21:27:06.247Z,9.69
2022-10-31T21:32:11.471Z,9.86
2022-10-31T21:37:15.783Z,9.93
2022-10-31T21:42:21.418Z,9.78
2022-10-31T21:47:24.648Z,9.77
2022-10-31T21:52:28.842Z,9.87
2022-10-31T21:57:32.547Z,9.82
2022-10-31T22:02:35.529Z,9.78
2022-10-31T22:07:39.728Z,9.82
2022-10-31T22:12:42.585Z,9.73
2022-10-31T22:17:45.487Z,9.66
2022-10-31T22:22:49.690Z,9.69
2022-10-31T22:27:53.436Z,9.66
2022-10-31T22:32:56.266Z,9.38
2022-10-31T22:38:00.475Z,9.33
2022-10-31T22:43:03.414Z,9.31
2022-10-31T22:48:07.128Z,9.26
2022-10-31T22:53:13.494Z,9.19
2022-10-31T22:58:16.463Z,9.20
2022-10-31T23:03:19.298Z,9.14
2022-10-31T23:08:23.509Z,9.15
2022-10-31T23:13:52.074Z,9.10
2022-10-31T23:18:55.092Z,8.90
2022-10-31T23:23:59.788Z,8.95
2022-10-31T23:29:02.636Z,8.93
2022-10-31T23:34:05.538Z,8.86
2022-10-31T23:39:09.927Z,8.71
2022-10-31T23:44:13.235Z,8.60
2022-10-31T23:49:16.090Z,8.48
2022-10-31T23:54:20.312Z,8.38
2022-10-31T23:59:23.357Z,8.32
